createdAt,value
2023-01-23T00:00:43.870Z,1.40
2023-01-23T00:03:30.566Z,1.30
2023-01-23T00:06:18.078Z,1.40
2023-01-23T00:09:04.931Z,1.40
2023-01-23T00:11:52.695Z,1.30
2023-01-23T00:14:39.214Z,1.30
2023-01-23T00:17:27.408Z,1.30
2023-01-23T00:20:14.467Z,1.40
2023-01-23T00:23:00.834Z,1.30
2023-01-23T00:25:47.196Z,1.30
2023-01-23T00:28:34.945Z,1.30
2023-01-23T00:31:24.641Z,1.40
2023-01-23T00:34:14.011Z,1.40
2023-01-23T00:37:00.314Z,1.40
2023-01-23T00:39:46.820Z,1.40
2023-01-23T00:42:33.062Z,1.40
2023-01-23T00:45:20.934Z,1.40
2023-01-23T00:48:07.801Z,1.40
2023-01-23T00:50:54.850Z,1.40
2023-01-23T00:53:41.429Z,1.40
2023-01-23T00:56:27.816Z,1.40
2023-01-23T00:59:14.695Z,1.40
2023-01-23T01:02:02.343Z,1.40
2023-01-23T01:04:48.654Z,1.40
2023-01-23T01:07:34.952Z,1.40
2023-01-23T01:10:21.707Z,1.40
2023-01-23T01:13:08.543Z,1.40
2023-01-23T01:15:55.837Z,1.40
2023-01-23T01:18:43.766Z,1.40
2023-01-23T01:21:30.207Z,1.30
2023-01-23T01:24:16.776Z,1.30
2023-01-23T01:27:03.341Z,1.30
2023-01-23T01:29:49.633Z,1.30
2023-01-23T01:32:37.854Z,1.30
2023-01-23T01:35:26.393Z,1.30
2023-01-23T01:38:12.630Z,1.30
2023-01-23T01:40:59.080Z,1.40
2023-01-23T01:43:46.012Z,1.40
2023-01-23T01:46:33.087Z,1.40
2023-01-23T01:49:24.824Z,1.40
2023-01-23T01:52:15.408Z,1.40
2023-01-23T01:55:06.060Z,1.40
2023-01-23T01:57:54.351Z,1.40
2023-01-23T02:00:41.100Z,1.40
2023-01-23T02:03:27.798Z,1.40
2023-01-23T02:06:14.344Z,1.40
2023-01-23T02:09:07.299Z,1.50
2023-01-23T02:11:54.174Z,1.50
2023-01-23T02:14:40.616Z,1.50
2023-01-23T02:17:27.147Z,1.40
2023-01-23T02:20:20.263Z,1.40
2023-01-23T02:23:14.527Z,1.50
2023-01-23T02:26:06.105Z,1.50
2023-01-23T02:28:55.202Z,1.40
2023-01-23T02:31:45.223Z,1.50
2023-01-23T02:34:32.090Z,1.50
2023-01-23T02:37:19.888Z,1.50
2023-01-23T02:40:08.058Z,1.60
2023-01-23T02:42:56.219Z,1.60
2023-01-23T02:45:42.851Z,1.50
2023-01-23T02:48:29.128Z,1.50
2023-01-23T02:51:16.927Z,1.50
2023-01-23T02:54:03.693Z,1.60
2023-01-23T02:56:50.601Z,1.60
2023-01-23T02:59:55.967Z,1.60
2023-01-23T03:02:42.702Z,1.50
2023-01-23T03:05:28.917Z,1.50
2023-01-23T03:08:15.278Z,1.50
2023-01-23T03:11:02.477Z,1.50
2023-01-23T03:13:49.559Z,1.50
2023-01-23T03:16:38.463Z,1.50
2023-01-23T03:19:26.981Z,1.60
2023-01-23T03:22:13.444Z,1.60
2023-01-23T03:24:59.741Z,1.60
2023-01-23T03:27:46.150Z,1.60
2023-01-23T03:30:31.717Z,1.60
2023-01-23T03:33:19.205Z,1.50
2023-01-23T03:36:05.891Z,1.50
2023-01-23T03:39:09.708Z,1.50
2023-01-23T03:41:56.398Z,1.60
2023-01-23T03:44:44.245Z,1.50
2023-01-23T03:47:30.614Z,1.60
2023-01-23T03:50:18.895Z,1.60
2023-01-23T03:53:05.573Z,1.60
2023-01-23T03:55:52.151Z,1.60
2023-01-23T03:58:38.851Z,1.50
2023-01-23T04:01:25.474Z,1.60
2023-01-23T04:04:12.165Z,1.50
2023-01-23T04:06:59.997Z,1.60
2023-01-23T04:09:46.562Z,1.60
2023-01-23T04:12:32.900Z,1.70
2023-01-23T04:15:19.279Z,1.60
2023-01-23T04:18:05.720Z,1.60
2023-01-23T04:20:52.498Z,1.60
2023-01-23T04:23:40.400Z,1.60
2023-01-23T04:26:26.617Z,1.70
2023-01-23T04:29:13.418Z,1.70
2023-01-23T04:31:59.702Z,1.70
2023-01-23T04:34:46.132Z,1.70
2023-01-23T04:37:32.448Z,1.70
2023-01-23T04:40:20.786Z,1.70
2023-01-23T04:43:07.156Z,1.70
2023-01-23T04:45:55.380Z,1.70
2023-01-23T04:48:41.921Z,1.70
2023-01-23T04:51:28.228Z,1.70
2023-01-23T04:54:14.503Z,1.60
2023-01-23T04:57:02.114Z,1.60
2023-01-23T04:59:48.530Z,1.70
2023-01-23T05:02:36.464Z,1.60
2023-01-23T05:05:23.432Z,1.60
2023-01-23T05:08:10.043Z,1.60
2023-01-23T05:10:56.437Z,1.70
2023-01-23T05:13:44.291Z,1.70
2023-01-23T05:16:30.948Z,1.70
2023-01-23T05:19:17.428Z,1.70
2023-01-23T05:22:03.727Z,1.60
2023-01-23T05:24:50.268Z,1.70
2023-01-23T05:27:36.844Z,1.60
2023-01-23T05:30:25.045Z,1.70
2023-01-23T05:33:11.871Z,1.70
2023-01-23T05:36:00.734Z,1.70
2023-01-23T05:38:47.406Z,1.70
2023-01-23T05:41:33.742Z,1.70
2023-01-23T05:44:19.980Z,1.70
2023-01-23T05:47:07.680Z,1.70
2023-01-23T05:49:54.063Z,1.70
2023-01-23T05:52:40.524Z,1.70
2023-01-23T05:55:27.340Z,1.70
2023-01-23T05:58:15.921Z,1.70
2023-01-23T06:01:03.483Z,1.70
2023-01-23T06:03:51.075Z,1.70
2023-01-23T06:06:37.573Z,1.70
2023-01-23T06:09:24.007Z,1.70
2023-01-23T06:12:10.769Z,1.60
2023-01-23T06:14:57.370Z,1.70
2023-01-23T06:17:43.653Z,1.60
2023-01-23T06:20:31.312Z,1.60
2023-01-23T06:23:17.817Z,1.70
2023-01-23T06:26:05.057Z,1.60
2023-01-23T06:28:51.474Z,1.60
2023-01-23T06:31:37.819Z,1.70
2023-01-23T06:34:24.171Z,1.60
2023-01-23T06:37:11.856Z,1.60
2023-01-23T06:39:58.341Z,1.60
2023-01-23T06:42:44.906Z,1.60
2023-01-23T06:45:31.444Z,1.50
2023-01-23T06:48:18.125Z,1.60
2023-01-23T06:51:06.086Z,1.60
2023-01-23T06:53:53.812Z,1.70
2023-01-23T06:56:40.183Z,1.60
2023-01-23T06:59:26.579Z,1.70
2023-01-23T07:02:13.843Z,1.70
2023-01-23T07:05:00.236Z,1.60
2023-01-23T07:07:47.035Z,1.70
2023-01-23T07:10:35.282Z,1.70
2023-01-23T07:13:21.734Z,1.70
2023-01-23T07:16:08.981Z,1.70
2023-01-23T07:18:58.795Z,1.70
2023-01-23T07:21:45.221Z,1.70
2023-01-23T07:24:32.477Z,1.70
2023-01-23T07:27:20.461Z,1.70
2023-01-23T07:30:07.765Z,1.70
2023-01-23T07:32:54.206Z,1.70
2023-01-23T07:35:40.931Z,1.70
2023-01-23T07:38:28.031Z,1.80
2023-01-23T07:41:14.484Z,1.80
2023-01-23T07:44:02.194Z,1.70
2023-01-23T07:46:49.359Z,1.80
2023-01-23T07:49:36.012Z,1.80
2023-01-23T07:52:22.568Z,1.80
2023-01-23T07:55:10.380Z,1.90
2023-01-23T07:57:57.269Z,1.90
2023-01-23T08:00:45.839Z,1.90
2023-01-23T08:03:32.092Z,1.90
2023-01-23T08:06:18.524Z,1.90
2023-01-23T08:09:04.996Z,1.90
2023-01-23T08:11:53.220Z,1.90
2023-01-23T08:14:40.707Z,1.90
2023-01-23T08:17:28.370Z,2.00
2023-01-23T08:20:15.133Z,2.00
2023-01-23T08:25:54.213Z,2.20
2023-01-23T08:28:40.633Z,2.30
2023-01-23T08:31:27.070Z,2.20
2023-01-23T08:34:15.456Z,2.30
2023-01-23T08:37:01.823Z,2.30
2023-01-23T08:39:48.391Z,2.40
2023-01-23T08:42:35.076Z,2.40
2023-01-23T08:45:22.148Z,2.50
2023-01-23T08:48:08.778Z,2.50
2023-01-23T08:51:03.070Z,2.50
2023-01-23T08:53:49.240Z,2.40
2023-01-23T08:56:35.564Z,2.40
2023-01-23T08:59:21.945Z,2.40
2023-01-23T09:02:08.474Z,2.40
2023-01-23T09:04:54.891Z,2.40
2023-01-23T09:07:42.732Z,2.40
2023-01-23T09:10:29.606Z,2.40
2023-01-23T09:13:16.665Z,2.40
2023-01-23T09:16:03.780Z,2.40
2023-01-23T09:18:50.523Z,2.50
2023-01-23T09:21:37.123Z,2.50
2023-01-23T09:24:24.984Z,2.50
2023-01-23T09:27:11.476Z,2.50
2023-01-23T09:29:57.764Z,2.50
2023-01-23T09:32:44.157Z,2.60
2023-01-23T09:35:30.785Z,2.60
2023-01-23T09:38:17.456Z,2.70
2023-01-23T09:41:12.769Z,2.70
2023-01-23T09:44:01.761Z,2.50
2023-01-23T09:46:52.564Z,2.50
2023-01-23T09:49:46.155Z,2.50
2023-01-23T09:52:37.902Z,2.50
2023-01-23T09:55:35.653Z,2.40
2023-01-23T09:58:27.323Z,2.50
2023-01-23T10:01:14.481Z,2.50
2023-01-23T10:04:03.138Z,2.50
2023-01-23T10:07:22.774Z,2.40
2023-01-23T10:10:26.031Z,2.40
2023-01-23T10:13:17.413Z,2.40
2023-01-23T10:16:35.396Z,2.30
2023-01-23T10:19:47.951Z,2.40
2023-01-23T10:22:38.649Z,2.40
2023-01-23T10:25:28.586Z,2.50
2023-01-23T10:28:29.712Z,2.40
2023-01-23T10:31:29.990Z,2.40
2023-01-23T10:34:23.336Z,2.40
2023-01-23T10:37:17.950Z,2.50
2023-01-23T10:40:11.476Z,2.40
2023-01-23T10:43:03.483Z,2.40
2023-01-23T10:45:51.184Z,2.40
2023-01-23T10:48:47.391Z,2.40
2023-01-23T10:51:36.905Z,2.50
2023-01-23T10:54:32.235Z,2.40
2023-01-23T10:57:26.170Z,2.50
2023-01-23T11:00:23.192Z,2.50
2023-01-23T11:03:31.094Z,2.50
2023-01-23T11:06:25.831Z,2.50
2023-01-23T11:09:21.094Z,2.50
2023-01-23T11:12:15.350Z,2.60
2023-01-23T11:15:22.737Z,2.50
2023-01-23T11:18:31.907Z,2.60
2023-01-23T11:21:24.250Z,2.60
2023-01-23T11:24:18.839Z,2.50
2023-01-23T11:27:18.115Z,2.60
2023-01-23T11:30:26.250Z,2.60
2023-01-23T11:33:23.790Z,2.50
2023-01-23T11:36:37.641Z,2.40
2023-01-23T11:39:41.172Z,2.50
2023-01-23T11:42:29.463Z,2.60
2023-01-23T11:45:30.391Z,2.70
2023-01-23T11:48:46.415Z,2.70
2023-01-23T11:51:38.920Z,2.80
2023-01-23T11:54:49.227Z,2.70
2023-01-23T11:57:48.388Z,2.70
2023-01-23T12:00:39.303Z,2.70
2023-01-23T12:04:02.825Z,2.70
2023-01-23T12:07:21.592Z,2.70
2023-01-23T12:10:23.348Z,2.60
2023-01-23T12:13:21.900Z,2.60
2023-01-23T12:16:17.576Z,2.60
2023-01-23T12:19:21.676Z,2.60
2023-01-23T12:22:16.024Z,2.60
2023-01-23T12:25:15.757Z,2.70
2023-01-23T12:28:12.370Z,2.60
2023-01-23T12:31:19.210Z,2.60
2023-01-23T12:34:32.956Z,2.60
2023-01-23T12:37:35.618Z,2.70
2023-01-23T12:40:28.140Z,2.60
2023-01-23T12:43:19.406Z,2.70
2023-01-23T12:46:11.738Z,2.60
2023-01-23T12:49:06.983Z,2.60
2023-01-23T12:51:59.919Z,2.60
2023-01-23T12:54:52.318Z,2.70
2023-01-23T12:57:59.477Z,2.60
2023-01-23T13:01:00.230Z,2.60
2023-01-23T13:04:03.295Z,2.60
2023-01-23T13:07:03.038Z,2.70
2023-01-23T13:10:12.354Z,2.70
2023-01-23T13:12:58.883Z,2.70
2023-01-23T13:15:45.736Z,2.70
2023-01-23T13:18:52.971Z,2.70
2023-01-23T13:21:58.014Z,2.70
2023-01-23T13:25:04.093Z,2.60
2023-01-23T13:27:52.985Z,2.60
2023-01-23T13:30:43.761Z,2.60
2023-01-23T13:33:53.793Z,2.60
2023-01-23T13:36:42.310Z,2.60
2023-01-23T13:39:30.270Z,2.60
2023-01-23T13:42:36.005Z,2.50
2023-01-23T13:45:34.722Z,2.50
2023-01-23T14:22:08.474Z,2.80
2023-01-23T14:24:56.297Z,2.80
2023-01-23T14:27:52.673Z,2.70
2023-01-23T14:30:40.185Z,2.70
2023-01-23T14:33:27.784Z,2.70
2023-01-23T14:36:17.353Z,2.70
2023-01-23T14:39:06.261Z,2.70
2023-01-23T14:41:56.170Z,2.80
2023-01-23T14:44:46.497Z,2.70
2023-01-23T14:47:35.339Z,2.70
2023-01-23T14:50:25.696Z,2.70
2023-01-23T14:53:18.129Z,2.70
2023-01-23T14:56:07.175Z,2.60
2023-01-23T14:58:55.566Z,2.70
2023-01-23T15:01:42.195Z,2.70
2023-01-23T15:04:31.025Z,2.70
2023-01-23T15:07:18.860Z,2.70
2023-01-23T15:10:06.196Z,2.70
2023-01-23T15:12:55.803Z,2.70
2023-01-23T15:15:47.892Z,2.60
2023-01-23T15:18:36.652Z,2.70
2023-01-23T15:21:30.311Z,2.70
2023-01-23T15:24:27.694Z,2.70
2023-01-23T15:27:27.071Z,2.60
2023-01-23T15:30:31.974Z,2.60
2023-01-23T15:33:26.994Z,2.50
2023-01-23T15:36:25.455Z,2.50
2023-01-23T15:39:19.997Z,2.50
2023-01-23T15:42:26.315Z,2.60
2023-01-23T15:45:15.912Z,2.60
2023-01-23T15:48:03.883Z,2.60
2023-01-23T15:50:50.412Z,2.70
2023-01-23T15:53:36.792Z,2.60
2023-01-23T15:56:28.964Z,2.60
2023-01-23T15:59:19.995Z,2.60
2023-01-23T16:02:11.020Z,2.60
2023-01-23T16:05:03.126Z,2.60
2023-01-23T16:07:50.985Z,2.50
2023-01-23T16:10:39.197Z,2.50
2023-01-23T16:13:25.742Z,2.50
2023-01-23T16:16:15.200Z,2.50
2023-01-23T16:19:01.907Z,2.50
2023-01-23T16:22:03.173Z,2.50
2023-01-23T16:24:51.582Z,2.50
2023-01-23T16:27:37.906Z,2.50
2023-01-23T16:30:25.384Z,2.40
2023-01-23T16:33:11.798Z,2.40
2023-01-23T16:35:58.392Z,2.50
2023-01-23T16:38:51.297Z,2.50
2023-01-23T16:41:37.997Z,2.60
2023-01-23T16:44:24.880Z,2.50
2023-01-23T16:47:11.551Z,2.40
2023-01-23T16:49:57.812Z,2.50
2023-01-23T16:52:51.764Z,2.50
2023-01-23T16:55:42.004Z,2.50
2023-01-23T16:58:31.149Z,2.50
2023-01-23T17:01:21.629Z,2.50
2023-01-23T17:04:08.396Z,2.50
2023-01-23T17:06:54.875Z,2.40
2023-01-23T17:09:41.302Z,2.50
2023-01-23T17:12:33.972Z,2.50
2023-01-23T17:15:23.396Z,2.40
2023-01-23T17:18:20.631Z,2.40
2023-01-23T17:21:07.526Z,2.40
2023-01-23T17:23:54.489Z,2.40
2023-01-23T17:26:41.220Z,2.40
2023-01-23T17:29:29.409Z,2.30
2023-01-23T17:32:27.778Z,2.30
2023-01-23T17:35:21.371Z,2.30
2023-01-23T17:38:16.809Z,2.30
2023-01-23T17:41:06.391Z,2.30
2023-01-23T17:43:52.886Z,2.30
2023-01-23T17:46:41.242Z,2.30
2023-01-23T17:49:30.346Z,2.30
2023-01-23T17:52:17.065Z,2.30
2023-01-23T17:55:03.619Z,2.30
2023-01-23T17:57:50.712Z,2.40
2023-01-23T18:00:39.174Z,2.40
2023-01-23T18:03:27.744Z,2.40
2023-01-23T18:06:14.519Z,2.40
2023-01-23T18:09:00.854Z,2.40
2023-01-23T18:11:52.143Z,2.40
2023-01-23T18:14:46.352Z,2.30
2023-01-23T18:17:38.803Z,2.30
2023-01-23T18:20:28.436Z,2.40
2023-01-23T18:23:15.654Z,2.30
2023-01-23T18:26:18.476Z,2.30
2023-01-23T18:29:16.063Z,2.30
2023-01-23T18:32:23.816Z,2.30
2023-01-23T18:35:27.740Z,2.30
2023-01-23T18:38:21.979Z,2.30
2023-01-23T18:41:17.119Z,2.30
2023-01-23T18:44:12.309Z,2.30
2023-01-23T18:47:00.161Z,2.30
2023-01-23T18:49:47.327Z,2.30
2023-01-23T18:52:44.593Z,2.30
2023-01-23T18:55:38.275Z,2.30
2023-01-23T18:58:36.559Z,2.30
2023-01-23T19:01:29.522Z,2.30
2023-01-23T19:04:16.951Z,2.30
2023-01-23T19:07:04.042Z,2.30
2023-01-23T19:09:51.172Z,2.30
2023-01-23T19:12:48.063Z,2.40
2023-01-23T19:15:40.149Z,2.30
2023-01-23T19:18:43.742Z,2.30
2023-01-23T19:21:30.673Z,2.30
2023-01-23T19:24:20.360Z,2.30
2023-01-23T19:27:18.820Z,2.30
2023-01-23T19:30:07.932Z,2.30
2023-01-23T19:32:54.835Z,2.30
2023-01-23T19:35:41.310Z,2.30
2023-01-23T19:38:27.728Z,2.30
2023-01-23T19:41:20.760Z,2.30
2023-01-23T19:44:07.797Z,2.30
2023-01-23T19:46:56.009Z,2.30
2023-01-23T19:49:42.403Z,2.20
2023-01-23T19:52:31.874Z,2.20
2023-01-23T19:55:24.954Z,2.20
2023-01-23T19:58:15.650Z,2.30
2023-01-23T20:01:02.298Z,2.30
2023-01-23T20:03:50.123Z,2.20
2023-01-23T20:06:38.797Z,2.20
2023-01-23T20:09:25.350Z,2.20
2023-01-23T20:12:13.599Z,2.20
2023-01-23T20:14:59.970Z,2.30
2023-01-23T20:17:46.467Z,2.30
2023-01-23T20:20:34.151Z,2.30
2023-01-23T20:23:20.816Z,2.40
2023-01-23T20:26:07.811Z,2.40
2023-01-23T20:28:54.380Z,2.30
2023-01-23T20:31:40.985Z,2.40
2023-01-23T20:34:27.316Z,2.30
2023-01-23T20:37:15.329Z,2.30
2023-01-23T20:40:01.872Z,2.30
2023-01-23T20:42:48.302Z,2.30
2023-01-23T20:45:34.509Z,2.30
2023-01-23T20:48:21.962Z,2.30
2023-01-23T20:51:10.013Z,2.30
2023-01-23T20:53:58.281Z,2.20
2023-01-23T20:56:45.879Z,2.30
2023-01-23T20:59:31.426Z,2.30
2023-01-23T21:02:28.014Z,2.30
2023-01-23T21:05:14.992Z,2.30
2023-01-23T21:08:01.905Z,2.30
2023-01-23T21:10:49.526Z,2.30
2023-01-23T21:13:37.281Z,2.20
2023-01-23T21:16:23.633Z,2.20
2023-01-23T21:19:10.264Z,2.20
2023-01-23T21:21:56.797Z,2.20
2023-01-23T21:24:43.553Z,2.20
2023-01-23T21:27:31.507Z,2.20
2023-01-23T21:30:18.238Z,2.20
2023-01-23T21:33:04.794Z,2.20
2023-01-23T21:35:52.083Z,2.20
2023-01-23T21:38:38.480Z,2.20
2023-01-23T21:41:25.316Z,2.10
2023-01-23T21:44:14.028Z,2.20
2023-01-23T21:47:00.446Z,2.20
2023-01-23T21:49:46.737Z,2.10
2023-01-23T21:52:33.195Z,2.20
2023-01-23T21:55:19.752Z,2.20
2023-01-23T21:58:06.583Z,2.20
2023-01-23T22:01:16.339Z,2.20
2023-01-23T22:04:05.469Z,2.30
2023-01-23T22:06:55.442Z,2.20
2023-01-23T22:09:41.935Z,2.20
2023-01-23T22:12:29.018Z,2.20
2023-01-23T22:15:15.963Z,2.20
2023-01-23T22:18:03.898Z,2.20
2023-01-23T22:20:54.503Z,2.20
2023-01-23T22:23:40.959Z,2.20
2023-01-23T22:26:27.314Z,2.10
2023-01-23T22:29:14.812Z,2.10
2023-01-23T22:32:01.210Z,2.20
2023-01-23T22:34:49.408Z,2.20
2023-01-23T22:37:36.333Z,2.10
2023-01-23T22:40:22.604Z,2.10
2023-01-23T22:43:10.176Z,2.20
2023-01-23T22:46:04.748Z,2.20
2023-01-23T22:48:51.630Z,2.10
2023-01-23T22:51:39.524Z,2.10
2023-01-23T22:54:26.487Z,2.20
2023-01-23T22:57:12.926Z,2.10
2023-01-23T22:59:59.353Z,2.20
2023-01-23T23:02:45.785Z,2.20
2023-01-23T23:05:32.204Z,2.10
2023-01-23T23:08:19.924Z,2.10
2023-01-23T23:11:12.401Z,2.00
2023-01-23T23:13:59.187Z,2.10
2023-01-23T23:16:46.234Z,2.10
2023-01-23T23:19:33.167Z,2.10
2023-01-23T23:22:19.539Z,2.10
2023-01-23T23:25:07.995Z,2.10
2023-01-23T23:27:54.680Z,2.10
2023-01-23T23:30:41.224Z,2.00
2023-01-23T23:33:28.161Z,2.10
2023-01-23T23:36:14.825Z,2.10
2023-01-23T23:39:01.199Z,2.10
2023-01-23T23:41:48.928Z,2.00
2023-01-23T23:44:35.351Z,2.00
2023-01-23T23:47:21.656Z,2.00
2023-01-23T23:50:09.421Z,2.00
2023-01-23T23:52:55.947Z,2.00
2023-01-23T23:55:42.542Z,2.00
2023-01-23T23:58:30.354Z,2.00
